Time;durP1;ratioP1;P1;durP2;ratioP2;P2;SDS_P1;SDS_P2;PMS_P1;PMS_P2;Temp;Humidity;BMP_temperature;BMP_pressure;BME280_temperature;BME280_humidity;BME280_pressure;Samples;Min_cycle;Max_cycle;Signal;HPM_P1;HPM_P2
2022/12/07 00:01:40;;;;;;;7.35;1.30;;;4.70;99.90;;;;;;5024019;28;20037;-74
2022/12/07 00:04:09;;;;;;;8.43;1.88;;;4.80;99.90;;;;;;4973036;28;20046;-73
2022/12/07 00:06:37;;;;;;;4.55;1.23;;;4.80;99.90;;;;;;4989373;28;20778;-73
2022/12/07 00:09:04;;;;;;;5.63;1.48;;;4.80;99.90;;;;;;4990327;28;20060;-73
2022/12/07 00:11:30;;;;;;;2.25;1.13;;;4.80;99.90;;;;;;4990217;28;20034;-74
2022/12/07 00:13:58;;;;;;;4.47;1.15;;;4.80;99.90;;;;;;4990003;28;20049;-74
2022/12/07 00:16:28;;;;;;;5.63;1.27;;;4.80;99.90;;;;;;4990550;28;20031;-74
2022/12/07 00:18:54;;;;;;;2.83;1.58;;;4.80;99.90;;;;;;5019973;28;20568;-74
2022/12/07 00:21:22;;;;;;;6.40;1.27;;;4.80;99.90;;;;;;5010902;28;20104;-75
2022/12/07 00:23:49;;;;;;;4.05;1.20;;;4.70;99.90;;;;;;4991439;28;20037;-74
2022/12/07 00:26:21;;;;;;;4.88;1.38;;;4.70;99.90;;;;;;4989139;28;20402;-74
2022/12/07 00:28:48;;;;;;;3.45;1.20;;;4.70;99.90;;;;;;4989507;28;20034;-73
2022/12/07 00:31:16;;;;;;;20.00;2.38;;;4.70;99.90;;;;;;4990800;28;20125;-73
2022/12/07 00:33:42;;;;;;;6.20;1.83;;;4.60;99.90;;;;;;4992410;28;20034;-75
2022/12/07 00:36:10;;;;;;;4.25;1.40;;;4.50;99.90;;;;;;5028382;28;20064;-75
2022/12/07 00:38:37;;;;;;;2.60;0.85;;;4.50;99.90;;;;;;5016461;28;20057;-75
2022/12/07 00:41:10;;;;;;;7.10;1.35;;;4.40;99.90;;;;;;5006805;28;20028;-75
2022/12/07 00:43:35;;;;;;;3.72;1.10;;;4.40;99.90;;;;;;5021753;28;20049;-75
2022/12/07 00:46:01;;;;;;;4.57;1.30;;;4.40;99.90;;;;;;5023227;28;20116;-75
2022/12/07 00:48:27;;;;;;;7.78;1.90;;;4.30;99.90;;;;;;5002803;28;20124;-74
2022/12/07 00:50:52;;;;;;;3.03;0.95;;;4.20;99.90;;;;;;5028545;28;20567;-74
2022/12/07 00:53:18;;;;;;;4.90;1.20;;;4.20;99.90;;;;;;5026314;28;20037;-75
2022/12/07 00:55:45;;;;;;;6.80;1.42;;;4.20;99.90;;;;;;5022388;28;20041;-75
2022/12/07 00:58:11;;;;;;;6.63;1.50;;;4.20;99.90;;;;;;5020651;28;20037;-74
2022/12/07 01:00:39;;;;;;;4.47;1.05;;;4.20;99.90;;;;;;5013876;28;20049;-75
2022/12/07 01:03:10;;;;;;;7.47;1.38;;;4.20;99.90;;;;;;5012328;28;20025;-74
2022/12/07 01:05:36;;;;;;;4.75;1.60;;;4.30;99.90;;;;;;5015729;28;20033;-75
2022/12/07 01:08:02;;;;;;;5.72;1.75;;;4.30;99.90;;;;;;5008780;28;20033;-74
2022/12/07 01:10:28;;;;;;;3.92;1.38;;;4.30;99.90;;;;;;5016715;28;20026;-74
2022/12/07 01:12:54;;;;;;;6.20;1.67;;;4.30;99.90;;;;;;5012494;28;20375;-74
2022/12/07 01:15:19;;;;;;;7.75;2.03;;;4.20;99.90;;;;;;5027871;28;20041;-74
2022/12/07 01:17:45;;;;;;;7.82;1.85;;;4.20;99.90;;;;;;4997345;28;20149;-75
2022/12/07 01:20:11;;;;;;;4.28;1.73;;;4.20;99.90;;;;;;5028727;28;20126;-74
2022/12/07 01:22:38;;;;;;;6.85;1.15;;;4.10;99.90;;;;;;5017038;28;20405;-75
2022/12/07 01:25:05;;;;;;;5.15;1.33;;;4.10;99.90;;;;;;5025570;28;20321;-74
2022/12/07 01:27:30;;;;;;;9.00;1.42;;;4.10;99.90;;;;;;5012873;28;20129;-73
2022/12/07 01:29:56;;;;;;;3.80;1.17;;;4.10;99.90;;;;;;5008446;28;20117;-75
2022/12/07 01:32:22;;;;;;;7.50;1.10;;;4.00;99.90;;;;;;4994290;28;20634;-74
2022/12/07 01:34:48;;;;;;;6.93;1.10;;;4.00;99.90;;;;;;4998658;28;20398;-74
2022/12/07 01:37:13;;;;;;;4.00;1.02;;;4.00;99.90;;;;;;5019096;28;20037;-74
2022/12/07 01:39:39;;;;;;;5.25;1.15;;;4.00;99.90;;;;;;5013421;28;20049;-74
2022/12/07 01:42:05;;;;;;;6.13;1.13;;;4.00;99.90;;;;;;5021537;28;20481;-74
2022/12/07 01:44:32;;;;;;;4.47;1.27;;;4.00;99.90;;;;;;5018226;28;20398;-74
2022/12/07 01:47:03;;;;;;;4.80;1.50;;;3.90;99.90;;;;;;5007876;28;20022;-74
2022/12/07 01:49:40;;;;;;;8.18;1.27;;;4.00;99.90;;;;;;5007755;28;20120;-74
2022/12/07 01:52:22;;;;;;;6.45;1.60;;;3.90;99.90;;;;;;5021624;28;20862;-75
2022/12/07 01:54:52;;;;;;;4.13;0.85;;;3.90;99.90;;;;;;5018537;28;20045;-75
2022/12/07 01:57:19;;;;;;;3.55;0.75;;;3.80;99.90;;;;;;5022558;28;20026;-75
2022/12/07 01:59:47;;;;;;;7.28;1.40;;;3.90;99.90;;;;;;5010986;28;20042;-75
2022/12/07 02:02:19;;;;;;;7.32;0.85;;;4.00;99.90;;;;;;5010919;28;20170;-74
2022/12/07 02:04:46;;;;;;;4.13;0.70;;;4.00;99.90;;;;;;5026930;28;20033;-74
2022/12/07 02:07:12;;;;;;;2.25;0.70;;;4.10;99.90;;;;;;5023997;28;20041;-75
2022/12/07 02:09:38;;;;;;;5.88;1.10;;;4.20;99.90;;;;;;5023962;28;20040;-75
2022/12/07 02:12:04;;;;;;;5.28;1.00;;;4.30;99.90;;;;;;5015802;28;20393;-74
2022/12/07 02:14:30;;;;;;;8.93;1.13;;;4.40;99.90;;;;;;5007259;28;20133;-74
2022/12/07 02:17:05;;;;;;;6.80;0.57;;;4.50;99.90;;;;;;5008505;28;20114;-74
2022/12/07 02:19:57;;;;;;;3.15;0.30;;;4.60;99.90;;;;;;4998876;28;20048;-75
2022/12/07 02:22:39;;;;;;;6.25;0.70;;;4.60;99.90;;;;;;5011609;28;20040;-74
2022/12/07 02:25:17;;;;;;;8.82;1.30;;;4.60;99.90;;;;;;4975989;28;20533;-74
2022/12/07 02:28:06;;;;;;;2.58;0.40;;;4.60;99.90;;;;;;4992815;28;20205;-75
2022/12/07 02:30:39;;;;;;;1.38;0.40;;;4.70;99.90;;;;;;4994501;28;20029;-75
2022/12/07 02:33:14;;;;;;;9.63;1.38;;;4.70;99.90;;;;;;4993789;28;20489;-75
2022/12/07 02:35:55;;;;;;;7.80;0.65;;;4.60;99.90;;;;;;5021631;28;20046;-76
2022/12/07 02:38:51;;;;;;;5.15;0.40;;;4.60;99.90;;;;;;5015401;28;20036;-74
2022/12/07 02:41:31;;;;;;;10.10;0.50;;;4.60;99.90;;;;;;5005767;28;20119;-74
2022/12/07 02:44:12;;;;;;;3.93;0.87;;;4.50;99.90;;;;;;4992246;28;20031;-74
2022/12/07 02:46:44;;;;;;;4.03;1.13;;;4.50;99.90;;;;;;5023345;28;20030;-74
2022/12/07 02:49:10;;;;;;;2.53;0.93;;;4.40;99.90;;;;;;5011628;28;20022;-75
2022/12/07 02:51:42;;;;;;;9.20;0.50;;;4.30;99.90;;;;;;5014987;28;20064;-75
2022/12/07 02:54:19;;;;;;;5.53;0.50;;;4.30;99.90;;;;;;5001498;28;20200;-74
2022/12/07 02:56:44;;;;;;;2.80;0.30;;;4.20;99.90;;;;;;5013052;28;20033;-74
2022/12/07 02:59:34;;;;;;;5.47;1.65;;;4.10;99.90;;;;;;5010973;28;20038;-74
2022/12/07 03:02:30;;;;;;;5.20;0.43;;;4.10;99.90;;;;;;5027955;28;20060;-74
2022/12/07 03:05:07;;;;;;;3.28;0.38;;;4.10;99.90;;;;;;5011588;28;20116;-74
2022/12/07 03:07:49;;;;;;;8.50;0.70;;;4.00;99.90;;;;;;5018997;28;20133;-74
2022/12/07 03:10:37;;;;;;;2.67;0.38;;;4.00;99.90;;;;;;4994664;28;20026;-74
2022/12/07 03:13:13;;;;;;;3.28;0.47;;;4.00;99.90;;;;;;5020228;28;20125;-74
2022/12/07 03:16:11;;;;;;;3.90;0.68;;;3.90;99.90;;;;;;5028032;28;20048;-75
2022/12/07 03:19:07;;;;;;;7.60;0.75;;;3.80;99.90;;;;;;4934668;28;20038;-75
2022/12/07 03:22:01;;;;;;;3.03;0.50;;;3.80;99.90;;;;;;5013498;28;20103;-75
2022/12/07 03:24:32;;;;;;;2.80;0.52;;;3.70;99.90;;;;;;5023872;28;20163;-74
2022/12/07 03:27:09;;;;;;;2.95;0.40;;;3.60;99.90;;;;;;5001995;28;20107;-74
2022/12/07 03:29:41;;;;;;;3.08;0.50;;;3.60;99.90;;;;;;5026111;28;20037;-74
2022/12/07 03:32:16;;;;;;;5.07;0.32;;;3.50;99.90;;;;;;5030364;28;20026;-74
2022/12/07 03:35:02;;;;;;;3.80;0.52;;;3.50;99.90;;;;;;5024336;28;20121;-74
2022/12/07 03:37:42;;;;;;;1.33;0.40;;;3.40;99.90;;;;;;5028876;28;20449;-75
2022/12/07 03:40:07;;;;;;;1.70;0.40;;;3.40;99.90;;;;;;5003011;28;20095;-74
2022/12/07 03:42:33;;;;;;;3.22;0.20;;;3.40;99.90;;;;;;5002056;28;20120;-74
2022/12/07 03:45:01;;;;;;;2.97;0.50;;;3.30;99.90;;;;;;5023136;28;20045;-75
2022/12/07 03:47:56;;;;;;;0.75;0.50;;;3.30;99.90;;;;;;5024875;28;20054;-75
2022/12/07 03:50:31;;;;;;;2.28;0.85;;;3.30;99.90;;;;;;5018820;28;20044;-74
2022/12/07 03:53:11;;;;;;;2.60;0.30;;;3.20;99.90;;;;;;5015841;28;20121;-74
2022/12/07 03:55:41;;;;;;;3.78;0.28;;;3.20;99.90;;;;;;5022126;28;20042;-74
2022/12/07 03:58:11;;;;;;;2.10;0.50;;;3.20;99.90;;;;;;5016398;28;20117;-73
2022/12/07 04:00:37;;;;;;;3.13;0.40;;;3.20;99.90;;;;;;5018799;28;20044;-75
2022/12/07 04:03:03;;;;;;;2.90;0.40;;;3.20;99.90;;;;;;5012162;28;20045;-74
2022/12/07 04:05:29;;;;;;;5.20;1.38;;;3.20;99.90;;;;;;5008405;28;20045;-74
2022/12/07 04:07:54;;;;;;;6.38;0.77;;;3.20;99.90;;;;;;5013655;28;20041;-74
2022/12/07 04:10:20;;;;;;;3.00;0.50;;;3.20;99.90;;;;;;5010748;28;20120;-74
2022/12/07 04:12:46;;;;;;;2.20;0.47;;;3.20;99.90;;;;;;5018951;28;20084;-74
2022/12/07 04:15:12;;;;;;;1.90;0.47;;;3.20;99.90;;;;;;5021500;28;20493;-73
2022/12/07 04:17:37;;;;;;;3.42;0.45;;;3.20;99.90;;;;;;5016039;28;20052;-75
2022/12/07 04:20:04;;;;;;;2.67;0.60;;;3.20;99.90;;;;;;5015991;28;20037;-74
2022/12/07 04:22:30;;;;;;;6.32;0.52;;;3.20;99.90;;;;;;5017949;28;20048;-75
2022/12/07 04:24:56;;;;;;;4.00;1.77;;;3.20;99.90;;;;;;5018579;28;20389;-74
2022/12/07 04:27:21;;;;;;;1.92;0.55;;;3.20;99.90;;;;;;5011866;28;20042;-74
2022/12/07 04:29:47;;;;;;;7.30;0.55;;;3.20;99.90;;;;;;5017383;28;20029;-74
2022/12/07 04:32:12;;;;;;;1.25;0.50;;;3.20;99.90;;;;;;5009271;28;20073;-74
2022/12/07 04:34:38;;;;;;;4.38;0.40;;;3.20;99.90;;;;;;5011955;28;20406;-74
2022/12/07 04:37:04;;;;;;;1.95;0.30;;;3.20;99.90;;;;;;5018325;28;20061;-73
2022/12/07 04:39:31;;;;;;;2.47;0.60;;;3.10;99.90;;;;;;5015133;28;20104;-74
2022/12/07 04:41:58;;;;;;;6.32;0.60;;;3.20;99.90;;;;;;5013750;28;20042;-74
2022/12/07 04:44:25;;;;;;;6.10;0.98;;;3.20;99.90;;;;;;5017137;28;20486;-74
2022/12/07 04:46:51;;;;;;;1.75;0.38;;;3.20;99.90;;;;;;4991172;28;20034;-74
2022/12/07 04:49:18;;;;;;;2.63;0.57;;;3.20;99.90;;;;;;4992155;28;20069;-73
2022/12/07 04:51:44;;;;;;;1.65;0.40;;;3.20;99.90;;;;;;5015971;28;20493;-72
2022/12/07 04:54:10;;;;;;;7.57;2.35;;;3.10;99.90;;;;;;5027674;28;20092;-73
2022/12/07 04:56:36;;;;;;;3.17;1.15;;;3.10;99.90;;;;;;4996208;28;20048;-74
2022/12/07 04:59:03;;;;;;;5.65;0.50;;;3.10;99.90;;;;;;5009883;28;20033;-73
2022/12/07 05:01:29;;;;;;;2.30;0.65;;;3.00;99.90;;;;;;5028481;28;20037;-74
2022/12/07 05:03:54;;;;;;;3.90;0.90;;;3.00;99.90;;;;;;5026385;28;20051;-73
2022/12/07 05:06:20;;;;;;;5.97;1.00;;;2.90;99.90;;;;;;5010346;28;20493;-73
2022/12/07 05:08:46;;;;;;;4.95;1.00;;;2.90;99.90;;;;;;5007474;28;20048;-74
2022/12/07 05:13:57;;;;;;;5.68;0.90;;;2.90;99.90;;;;;;4990822;28;20398;-73
2022/12/07 05:16:22;;;;;;;3.22;0.57;;;2.90;99.90;;;;;;5027547;28;20034;-73
2022/12/07 05:18:48;;;;;;;3.70;0.60;;;3.00;99.90;;;;;;5007323;28;20042;-73
2022/12/07 05:21:13;;;;;;;1.92;0.77;;;3.10;99.90;;;;;;5012990;28;20056;-76
2022/12/07 05:23:39;;;;;;;5.32;1.00;;;3.10;99.90;;;;;;5012442;28;20076;-73
2022/12/07 05:26:04;;;;;;;2.65;0.90;;;3.10;99.90;;;;;;5020273;28;20372;-74
2022/12/07 05:28:30;;;;;;;4.68;0.60;;;3.10;99.90;;;;;;5018748;28;20398;-75
2022/12/07 05:30:56;;;;;;;4.18;0.70;;;3.10;99.90;;;;;;5009446;28;20022;-73
2022/12/07 05:33:21;;;;;;;1.67;0.60;;;3.10;99.90;;;;;;5021715;28;20042;-74
2022/12/07 05:35:47;;;;;;;17.33;0.88;;;3.20;99.90;;;;;;4977215;28;20116;-74
2022/12/07 05:38:12;;;;;;;2.75;0.40;;;3.20;99.90;;;;;;5008783;28;20029;-74
2022/12/07 05:40:38;;;;;;;6.88;0.65;;;3.30;99.90;;;;;;4988507;28;20046;-74
2022/12/07 05:43:04;;;;;;;5.55;0.65;;;3.30;99.90;;;;;;4994003;28;20114;-74
2022/12/07 05:45:29;;;;;;;7.75;1.55;;;3.30;99.90;;;;;;5025324;28;20064;-74
2022/12/07 05:47:55;;;;;;;5.10;1.15;;;3.40;99.90;;;;;;5018106;28;20083;-74
2022/12/07 05:50:20;;;;;;;2.78;0.50;;;3.40;99.90;;;;;;5023036;28;20048;-74
2022/12/07 05:52:46;;;;;;;2.70;0.50;;;3.50;99.90;;;;;;5011957;28;20145;-75
2022/12/07 05:55:11;;;;;;;8.50;1.60;;;3.50;99.90;;;;;;5006299;28;20096;-69
2022/12/07 05:57:37;;;;;;;2.92;0.60;;;3.60;99.90;;;;;;4987978;28;20544;-74
2022/12/07 06:00:04;;;;;;;2.78;0.70;;;3.60;99.90;;;;;;4970961;28;20057;-74
2022/12/07 06:02:29;;;;;;;8.35;1.23;;;3.60;99.90;;;;;;4992119;28;20085;-74
2022/12/07 06:04:55;;;;;;;7.78;0.60;;;3.70;99.90;;;;;;5011079;28;20049;-72
2022/12/07 06:07:20;;;;;;;9.20;0.52;;;3.70;99.90;;;;;;5010714;28;20414;-75
2022/12/07 06:09:46;;;;;;;6.28;0.68;;;3.80;99.90;;;;;;5015442;28;20041;-74
2022/12/07 06:14:57;;;;;;;4.80;1.30;;;3.80;99.90;;;;;;5026787;28;20048;-74
2022/12/07 06:17:23;;;;;;;3.72;0.43;;;3.80;99.90;;;;;;5014166;28;20036;-74
2022/12/07 06:19:49;;;;;;;7.53;1.98;;;3.80;99.90;;;;;;5009462;28;20029;-75
2022/12/07 06:22:15;;;;;;;1.65;0.40;;;3.80;99.90;;;;;;5009523;28;20452;-74
2022/12/07 06:24:42;;;;;;;1.98;0.35;;;3.90;99.90;;;;;;5009629;28;20382;-74
2022/12/07 06:27:08;;;;;;;3.13;0.55;;;3.90;99.90;;;;;;5014045;28;20104;-74
2022/12/07 06:29:33;;;;;;;6.47;1.05;;;3.90;99.90;;;;;;5016881;28;20026;-76
2022/12/07 06:31:59;;;;;;;5.40;0.73;;;3.90;99.90;;;;;;5019664;28;20374;-74
2022/12/07 06:34:26;;;;;;;3.25;0.60;;;4.00;99.90;;;;;;5015273;28;20060;-74
2022/12/07 06:36:54;;;;;;;9.20;1.27;;;4.00;99.90;;;;;;5008964;28;20494;-74
2022/12/07 06:39:22;;;;;;;3.55;1.00;;;4.00;99.90;;;;;;4995791;28;20079;-74
2022/12/07 06:41:48;;;;;;;4.22;0.50;;;3.90;99.90;;;;;;4997825;28;20033;-74
2022/12/07 06:44:14;;;;;;;6.20;0.57;;;3.90;99.90;;;;;;4999751;28;20549;-74
2022/12/07 06:46:39;;;;;;;3.83;0.70;;;3.80;99.90;;;;;;5016119;28;20045;-74
2022/12/07 06:49:06;;;;;;;4.60;0.65;;;3.80;99.90;;;;;;5013840;28;20482;-74
2022/12/07 06:51:32;;;;;;;5.70;0.60;;;3.70;99.90;;;;;;5015604;28;20038;-74
2022/12/07 06:53:58;;;;;;;3.72;1.00;;;3.70;99.90;;;;;;5013949;28;20100;-74
2022/12/07 06:56:23;;;;;;;3.78;1.55;;;3.70;99.90;;;;;;4997326;28;20464;-74
2022/12/07 06:58:49;;;;;;;4.15;1.30;;;3.60;99.90;;;;;;5012598;28;20037;-74
2022/12/07 07:01:17;;;;;;;7.90;0.73;;;3.70;99.90;;;;;;5024377;28;20064;-74
2022/12/07 07:03:44;;;;;;;3.83;0.32;;;3.70;99.90;;;;;;5011753;28;20034;-74
2022/12/07 07:06:10;;;;;;;7.32;0.93;;;3.80;99.90;;;;;;4988546;28;20038;-74
2022/12/07 07:08:37;;;;;;;5.28;0.80;;;3.80;99.90;;;;;;5010063;28;20038;-74
2022/12/07 07:11:03;;;;;;;5.45;1.65;;;3.80;99.90;;;;;;5011249;28;20037;-74
2022/12/07 07:13:28;;;;;;;6.97;0.60;;;3.80;99.90;;;;;;4991906;28;20034;-74
2022/12/07 07:15:54;;;;;;;3.35;0.57;;;3.70;99.90;;;;;;5021782;28;20144;-76
2022/12/07 07:18:20;;;;;;;3.28;0.88;;;3.70;99.90;;;;;;5020203;28;20033;-74
2022/12/07 07:20:45;;;;;;;8.55;0.93;;;3.70;99.90;;;;;;5008922;28;20040;-74
2022/12/07 07:23:11;;;;;;;4.30;0.85;;;3.60;99.90;;;;;;5000515;28;20508;-75
2022/12/07 07:25:37;;;;;;;3.22;0.88;;;3.60;99.90;;;;;;5021846;28;20033;-74
2022/12/07 07:28:03;;;;;;;9.57;1.20;;;3.50;99.90;;;;;;5014144;28;20040;-75
2022/12/07 07:30:29;;;;;;;5.43;0.60;;;3.50;99.90;;;;;;5019688;28;20056;-75
2022/12/07 07:32:58;;;;;;;6.47;0.57;;;3.40;99.90;;;;;;5021198;28;20038;-75
2022/12/07 07:35:25;;;;;;;2.73;0.40;;;3.40;99.90;;;;;;4998068;28;20414;-74
2022/12/07 07:37:51;;;;;;;2.63;0.70;;;3.30;99.90;;;;;;5019045;28;20541;-74
2022/12/07 07:40:16;;;;;;;9.30;1.55;;;3.30;99.90;;;;;;5016475;28;20128;-74
2022/12/07 07:42:42;;;;;;;4.65;0.90;;;3.30;99.90;;;;;;5021130;28;20041;-75
2022/12/07 07:45:09;;;;;;;7.28;1.10;;;3.20;99.90;;;;;;5024036;28;20045;-74
2022/12/07 07:47:35;;;;;;;1.77;0.80;;;3.20;99.90;;;;;;4994622;28;20052;-74
2022/12/07 07:50:00;;;;;;;4.38;0.40;;;3.20;99.90;;;;;;5019309;28;20078;-74
2022/12/07 07:52:26;;;;;;;4.88;0.60;;;3.10;99.90;;;;;;5023468;28;20496;-74
2022/12/07 07:54:52;;;;;;;7.43;0.65;;;3.10;99.90;;;;;;5015315;28;20560;-75
2022/12/07 07:57:17;;;;;;;6.88;0.57;;;3.10;99.90;;;;;;5017192;28;20052;-74
2022/12/07 07:59:43;;;;;;;3.20;0.55;;;3.10;99.90;;;;;;5017767;28;20037;-75
2022/12/07 08:02:17;;;;;;;3.55;0.55;;;3.10;99.90;;;;;;5002692;28;20124;-75
2022/12/07 08:04:43;;;;;;;1.50;0.40;;;3.10;99.90;;;;;;5013166;28;20100;-74
2022/12/07 08:07:08;;;;;;;4.32;0.60;;;3.10;99.90;;;;;;5008685;28;20826;-74
2022/12/07 08:09:34;;;;;;;8.40;1.00;;;3.20;99.90;;;;;;5004029;28;20037;-74
2022/12/07 08:12:00;;;;;;;6.18;0.88;;;3.20;99.90;;;;;;5020282;28;20540;-75
2022/12/07 08:14:27;;;;;;;2.78;0.70;;;3.10;99.90;;;;;;5018646;28;20131;-74
2022/12/07 08:16:52;;;;;;;3.70;0.55;;;3.20;99.90;;;;;;5020135;28;20034;-74
2022/12/07 08:19:18;;;;;;;1.60;0.32;;;3.20;99.90;;;;;;5020343;28;20109;-74
2022/12/07 08:21:44;;;;;;;5.00;0.57;;;3.20;99.90;;;;;;5020752;28;20131;-73
2022/12/07 08:24:09;;;;;;;4.68;1.02;;;3.20;99.90;;;;;;5000191;28;20033;-75
2022/12/07 08:26:35;;;;;;;2.10;0.55;;;3.20;99.90;;;;;;5013299;28;20065;-74
2022/12/07 08:29:00;;;;;;;7.88;1.23;;;3.30;99.90;;;;;;5017776;28;20421;-74
2022/12/07 08:31:27;;;;;;;2.53;0.77;;;3.30;99.90;;;;;;5002206;28;20037;-74
2022/12/07 08:33:53;;;;;;;4.85;0.50;;;3.30;99.90;;;;;;5001480;28;20037;-74
2022/12/07 08:36:19;;;;;;;12.05;1.83;;;3.40;99.90;;;;;;5017883;28;20034;-75
2022/12/07 08:38:45;;;;;;;7.25;0.68;;;3.60;99.90;;;;;;4999190;28;20088;-74
2022/12/07 08:41:11;;;;;;;9.00;0.85;;;3.80;99.90;;;;;;5001872;28;20045;-74
2022/12/07 08:43:37;;;;;;;4.40;0.65;;;3.90;99.90;;;;;;5015552;28;20030;-74
2022/12/07 08:46:18;;;;;;;3.80;1.15;;;3.90;99.90;;;;;;5026107;28;20087;-74
2022/12/07 08:48:52;;;;;;;4.80;0.70;;;4.00;99.90;;;;;;4994422;28;20034;-74
2022/12/07 08:51:18;;;;;;;5.03;0.60;;;4.10;99.90;;;;;;5017952;28;20120;-74
2022/12/07 08:53:44;;;;;;;5.80;1.40;;;4.10;99.90;;;;;;5029027;28;20034;-74
2022/12/07 08:56:10;;;;;;;7.53;0.80;;;4.20;99.90;;;;;;5018931;28;20061;-73
2022/12/07 08:58:36;;;;;;;12.90;1.38;;;4.20;99.90;;;;;;5016652;28;20064;-74
2022/12/07 09:01:03;;;;;;;4.53;0.80;;;4.20;99.90;;;;;;5000489;28;20029;-75
2022/12/07 09:03:29;;;;;;;7.50;1.05;;;4.30;99.90;;;;;;4994072;28;20034;-75
2022/12/07 09:05:54;;;;;;;2.90;1.30;;;4.30;99.90;;;;;;5008406;28;20401;-73
2022/12/07 09:08:23;;;;;;;3.47;1.58;;;4.30;99.90;;;;;;4991379;28;20048;-74
2022/12/07 09:10:48;;;;;;;6.78;1.42;;;4.30;99.90;;;;;;5008098;28;20036;-73
2022/12/07 09:13:14;;;;;;;4.57;1.05;;;4.30;99.90;;;;;;5007076;28;20066;-74
2022/12/07 09:15:40;;;;;;;8.05;1.70;;;4.30;99.90;;;;;;4990966;28;20076;-74
2022/12/07 09:18:05;;;;;;;5.50;0.82;;;4.40;99.90;;;;;;4988476;28;20042;-74
2022/12/07 09:20:31;;;;;;;9.43;1.58;;;4.60;99.90;;;;;;5011884;28;20038;-73
2022/12/07 09:22:56;;;;;;;6.95;1.35;;;4.70;99.90;;;;;;4995911;28;20430;-75
2022/12/07 09:25:22;;;;;;;4.03;1.10;;;4.70;99.90;;;;;;5001344;28;20112;-74
2022/12/07 09:27:48;;;;;;;3.38;0.80;;;4.90;99.90;;;;;;5003336;28;20053;-75
2022/12/07 09:30:13;;;;;;;3.60;0.75;;;5.00;99.90;;;;;;5014563;28;20030;-74
2022/12/07 09:32:39;;;;;;;3.92;1.00;;;5.10;99.90;;;;;;5011674;28;20057;-74
2022/12/07 09:35:05;;;;;;;4.32;1.10;;;5.20;99.90;;;;;;5022053;28;20033;-74
2022/12/07 09:37:34;;;;;;;7.53;1.30;;;5.20;99.90;;;;;;5016247;28;20029;-75
2022/12/07 09:40:00;;;;;;;2.55;0.75;;;5.20;99.90;;;;;;5015274;28;20113;-75
2022/12/07 09:42:32;;;;;;;2.58;0.60;;;5.10;99.90;;;;;;5004049;28;20033;-74
2022/12/07 09:44:59;;;;;;;2.45;0.63;;;5.10;99.90;;;;;;4995191;28;20033;-74
2022/12/07 09:47:25;;;;;;;7.63;0.85;;;5.00;99.90;;;;;;5017668;28;20057;-74
2022/12/07 09:49:53;;;;;;;4.40;0.77;;;4.90;99.90;;;;;;5020668;28;20121;-75
2022/12/07 09:52:26;;;;;;;4.70;1.45;;;4.80;99.90;;;;;;5020926;28;20042;-74
2022/12/07 09:54:52;;;;;;;4.40;0.85;;;4.80;99.90;;;;;;5019391;28;20040;-75
2022/12/07 09:57:25;;;;;;;3.53;0.63;;;4.80;99.90;;;;;;5014245;28;20630;-75
2022/12/07 09:59:50;;;;;;;3.45;0.80;;;4.80;99.90;;;;;;5012050;28;20049;-75
2022/12/07 10:02:33;;;;;;;2.53;0.60;;;4.80;99.90;;;;;;5003034;28;20041;-74
2022/12/07 10:04:59;;;;;;;7.38;1.00;;;4.80;99.90;;;;;;4993621;28;20029;-74
2022/12/07 10:07:25;;;;;;;2.28;0.75;;;4.90;99.90;;;;;;5020160;28;20037;-74
2022/12/07 10:09:50;;;;;;;7.35;1.42;;;5.00;99.90;;;;;;5014364;28;20386;-74
2022/12/07 10:12:16;;;;;;;4.00;0.95;;;5.10;99.90;;;;;;4997401;28;20034;-74
2022/12/07 10:14:58;;;;;;;4.53;0.60;;;5.30;99.90;;;;;;5001178;28;20065;-75
2022/12/07 10:17:49;;;;;;;6.88;0.88;;;5.30;99.90;;;;;;5015948;28;20042;-74
2022/12/07 10:20:25;;;;;;;6.63;1.05;;;5.30;99.90;;;;;;5021188;28;20172;-74
2022/12/07 10:22:55;;;;;;;4.32;0.90;;;5.40;99.90;;;;;;5010080;28;20082;-74
2022/12/07 10:25:22;;;;;;;2.80;0.90;;;5.40;99.90;;;;;;5010380;28;20041;-75
2022/12/07 10:28:08;;;;;;;5.82;1.48;;;5.40;99.90;;;;;;4992207;28;20038;-75
2022/12/07 10:31:01;;;;;;;4.13;0.50;;;5.50;99.90;;;;;;5014652;28;20655;-75
2022/12/07 10:33:34;;;;;;;3.08;1.38;;;5.70;99.90;;;;;;5007655;28;20034;-75
2022/12/07 10:36:15;;;;;;;3.30;0.85;;;5.80;99.90;;;;;;5017374;28;20485;-74
2022/12/07 10:38:49;;;;;;;3.35;0.70;;;5.90;99.90;;;;;;5006099;28;20030;-75
2022/12/07 10:41:15;;;;;;;3.13;0.73;;;6.00;99.90;;;;;;5003387;28;20087;-75
2022/12/07 10:43:51;;;;;;;3.55;1.23;;;6.10;99.90;;;;;;5019719;28;20033;-74
2022/12/07 10:46:20;;;;;;;5.88;1.13;;;6.10;99.90;;;;;;5013213;28;20088;-74
2022/12/07 10:49:27;;;;;;;5.93;0.65;;;6.20;99.90;;;;;;5000113;28;20041;-74
2022/12/07 10:52:03;;;;;;;5.65;0.82;;;6.20;99.90;;;;;;5013907;28;20038;-74
2022/12/07 10:54:59;;;;;;;9.13;0.57;;;6.10;99.90;;;;;;5020198;28;20076;-74
2022/12/07 10:57:55;;;;;;;8.85;0.70;;;6.10;99.90;;;;;;5018684;28;20030;-74
2022/12/07 11:00:27;;;;;;;6.07;0.22;;;6.00;99.90;;;;;;5023097;28;20090;-73
2022/12/07 11:03:11;;;;;;;2.45;0.50;;;6.00;99.90;;;;;;5017386;28;20510;-73
2022/12/07 11:06:05;;;;;;;4.03;0.60;;;6.00;99.90;;;;;;5023296;28;20049;-74
2022/12/07 11:08:50;;;;;;;2.13;0.38;;;5.90;99.90;;;;;;5003659;28;20044;-73
2022/12/07 11:11:35;;;;;;;4.45;0.50;;;6.00;99.90;;;;;;4998411;28;20458;-74
2022/12/07 11:14:15;;;;;;;2.97;0.40;;;5.90;99.90;;;;;;5017652;28;20137;-75
2022/12/07 11:16:41;;;;;;;2.00;0.20;;;5.90;99.90;;;;;;5021722;28;20508;-76
2022/12/07 11:19:06;;;;;;;6.85;0.60;;;5.90;99.90;;;;;;5017838;28;20057;-73
2022/12/07 11:21:52;;;;;;;2.65;0.40;;;5.90;99.90;;;;;;5014358;28;20044;-74
2022/12/07 11:24:43;;;;;;;4.30;1.17;;;6.00;99.90;;;;;;5003576;28;20434;-74
2022/12/07 11:27:39;;;;;;;3.03;0.73;;;6.10;99.90;;;;;;5016092;28;20040;-74
2022/12/07 11:30:23;;;;;;;3.80;0.28;;;6.20;99.90;;;;;;5018863;28;20037;-73
2022/12/07 11:32:55;;;;;;;4.47;0.60;;;6.30;99.90;;;;;;5019060;28;20046;-73
2022/12/07 11:35:33;;;;;;;4.35;0.75;;;6.40;99.90;;;;;;5019867;28;20103;-74
2022/12/07 11:38:07;;;;;;;6.85;0.47;;;6.50;99.90;;;;;;5010983;28;20041;-74
2022/12/07 11:40:38;;;;;;;2.15;0.57;;;6.50;99.90;;;;;;5017892;28;20032;-74
2022/12/07 11:43:26;;;;;;;1.95;0.60;;;6.50;99.90;;;;;;5017580;28;20040;-74
2022/12/07 11:46:04;;;;;;;2.17;0.40;;;6.50;99.90;;;;;;4999643;28;20397;-73
2022/12/07 11:48:41;;;;;;;2.25;0.35;;;6.40;99.90;;;;;;5003484;28;20105;-74
2022/12/07 11:51:10;;;;;;;5.07;0.65;;;6.30;99.90;;;;;;5016117;28;20041;-74
2022/12/07 11:53:52;;;;;;;8.65;0.63;;;6.30;99.90;;;;;;4999682;28;20080;-74
2022/12/07 11:56:21;;;;;;;2.45;0.65;;;6.20;99.90;;;;;;5016640;28;20417;-73
2022/12/07 11:58:49;;;;;;;10.45;0.98;;;6.10;99.90;;;;;;5016064;28;20036;-73
2022/12/07 12:01:28;;;;;;;5.45;1.33;;;6.10;99.90;;;;;;5014865;28;20046;-74
2022/12/07 12:04:00;;;;;;;4.25;0.50;;;6.00;99.90;;;;;;5014978;28;20485;-75
2022/12/07 12:06:26;;;;;;;4.35;0.70;;;6.00;99.90;;;;;;5000997;28;20030;-74
2022/12/07 12:09:09;;;;;;;7.28;1.02;;;5.90;99.90;;;;;;5017026;28;20064;-73
2022/12/07 12:11:53;;;;;;;2.72;0.32;;;5.90;99.90;;;;;;4995781;28;20045;-74
2022/12/07 12:14:51;;;;;;;2.35;0.47;;;5.90;99.90;;;;;;4996771;28;20041;-73
2022/12/07 12:17:38;;;;;;;6.97;0.70;;;6.00;99.90;;;;;;4988864;28;20042;-74
2022/12/07 12:20:17;;;;;;;4.70;0.30;;;6.00;99.90;;;;;;5015499;28;20037;-71
2022/12/07 12:22:54;;;;;;;6.10;0.70;;;6.00;99.90;;;;;;4997594;28;20045;-74
2022/12/07 12:25:28;;;;;;;6.97;0.38;;;6.00;99.90;;;;;;5011541;28;20147;-74
2022/12/07 12:27:57;;;;;;;2.60;0.60;;;6.00;99.90;;;;;;5013323;28;20629;-74
2022/12/07 12:30:35;;;;;;;1.17;0.10;;;6.00;99.90;;;;;;4997699;28;20034;-74
2022/12/07 12:33:26;;;;;;;4.55;0.55;;;6.10;99.90;;;;;;4994645;28;20437;-74
2022/12/07 12:36:30;;;;;;;2.22;0.75;;;6.10;99.90;;;;;;4999679;28;20037;-74
2022/12/07 12:38:58;;;;;;;2.47;0.77;;;6.10;99.90;;;;;;4930293;29;20031;-73
2022/12/07 12:44:19;;;;;;;4.85;0.38;;;6.00;99.90;;;;;;4989679;28;20041;-75
2022/12/07 12:47:02;;;;;;;2.40;0.60;;;5.90;99.90;;;;;;5016540;28;20072;-75
2022/12/07 12:49:28;;;;;;;2.10;0.40;;;5.90;99.90;;;;;;4998052;28;20056;-74
2022/12/07 12:51:59;;;;;;;6.40;0.50;;;5.80;99.90;;;;;;4997370;28;20130;-74
2022/12/07 12:54:34;;;;;;;1.02;0.20;;;5.80;99.90;;;;;;5016117;28;20049;-74
2022/12/07 12:57:29;;;;;;;3.90;0.50;;;5.70;99.90;;;;;;5000182;28;20048;-74
2022/12/07 12:59:54;;;;;;;4.78;0.40;;;5.80;99.90;;;;;;5010069;28;20030;-74
2022/12/07 13:02:58;;;;;;;1.25;0.22;;;5.70;99.90;;;;;;4995969;28;20096;-73
2022/12/07 13:05:28;;;;;;;5.00;0.77;;;5.70;99.90;;;;;;4970446;28;20092;-73
2022/12/07 13:08:14;;;;;;;2.80;0.45;;;5.70;99.90;;;;;;5012505;28;20057;-73
2022/12/07 13:10:43;;;;;;;1.67;0.30;;;5.70;99.90;;;;;;5010074;28;20479;-73
2022/12/07 13:13:12;;;;;;;2.33;0.73;;;5.70;99.90;;;;;;5016963;28;20056;-75
2022/12/07 13:16:14;;;;;;;4.32;0.20;;;5.70;99.90;;;;;;5019353;28;20055;-75
2022/12/07 13:18:41;;;;;;;2.72;0.35;;;5.70;99.90;;;;;;4964756;28;20124;-75
2022/12/07 13:21:06;;;;;;;1.95;0.63;;;5.70;99.90;;;;;;5001540;28;20041;-74
2022/12/07 13:23:44;;;;;;;3.60;0.65;;;5.80;99.90;;;;;;5018776;28;20500;-74
2022/12/07 13:26:17;;;;;;;1.63;0.20;;;5.80;99.90;;;;;;4992400;28;20042;-75